YPPD/PHE METAR and TAF weather

Enter ICAO airport designator
Station Type Date Time Source
YPPD METAR 2019/06/27 04:00 UTC NOAA

YPPD 270400Z AUTO 03007KT 9999 // NCD 23/18 Q1016


Station Type Date Time Source
YPPD Decoded METAR 2019/06/27 04:00 UTC NOAA

Port Hedland Pardoo, Australia (YPPD) 20-06S 119-34E 10M
Jun 27, 2019 - 12:00 AM EDT / 2019.06.27 0400 UTC
Wind: from the NNE (030 degrees) at 8 MPH (7 KT):0
Visibility: greater than 7 mile(s):0
Temperature: 73 F (23 C)
Dew Point: 64 F (18 C)
Relative Humidity: 73%
Pressure (altimeter): 30.00 in. Hg (1016 hPa)
ob: YPPD 270400Z AUTO 03007KT 9999 // NCD 23/18 Q1016
cycle: 4

Station Type Date Time Source
YPPD TAF 2019/06/26 18:36 UTC NOAA

TAF YPPD 261706Z 2618/2718 17005KT 9999 SCT010
FM270100 09010KT CAVOK
FM270400 34008KT CAVOK
FM271000 25005KT CAVOK PROB30 2618/2701 0500 FG

Example: see airport list